Time;durP1;ratioP1;P1;durP2;ratioP2;P2;SDS_P1;SDS_P2;PMS_P1;PMS_P2;Temp;Humidity;BMP_temperature;BMP_pressure;BME280_temperature;BME280_humidity;BME280_pressure;Samples;Min_cycle;Max_cycle;Signal;HPM_P1;HPM_P2
2022/09/28 00:01:07;;;;;;;6.20;4.73;;;8.70;99.90;;;;;;4994895;28;20705;-54
2022/09/28 00:03:35;;;;;;;5.40;4.60;;;8.70;99.90;;;;;;4990303;28;20233;-51
2022/09/28 00:06:04;;;;;;;6.27;4.40;;;8.60;99.90;;;;;;4996440;28;20227;-52
2022/09/28 00:08:33;;;;;;;5.40;4.60;;;8.60;99.90;;;;;;5009526;28;20224;-55
2022/09/28 00:11:05;;;;;;;8.43;4.93;;;8.60;99.90;;;;;;4995367;28;20233;-53
2022/09/28 00:13:34;;;;;;;7.03;4.30;;;8.60;99.90;;;;;;4992786;28;20229;-53
2022/09/28 00:16:03;;;;;;;6.03;5.17;;;8.50;99.90;;;;;;4996860;28;20267;-53
2022/09/28 00:18:32;;;;;;;5.37;4.63;;;8.60;99.90;;;;;;5002482;28;20234;-53
2022/09/28 00:21:06;;;;;;;5.57;5.07;;;8.60;99.90;;;;;;4994313;28;20231;-51
2022/09/28 00:24:11;;;;;;;5.90;4.87;;;8.60;99.90;;;;;;4994154;28;20226;-51
2022/09/28 00:26:26;;;;;;;5.93;5.13;;;8.50;99.90;;;;;;4997651;28;20260;-55
2022/09/28 00:28:55;;;;;;;6.17;4.83;;;8.50;99.90;;;;;;4992276;28;20250;-53
2022/09/28 00:31:23;;;;;;;5.50;4.97;;;8.50;99.90;;;;;;5000274;28;20230;-53
2022/09/28 00:33:54;;;;;;;6.10;4.73;;;8.50;99.90;;;;;;4990191;28;20234;-55
2022/09/28 00:36:22;;;;;;;5.87;5.27;;;8.50;99.90;;;;;;5000194;28;20296;-51
2022/09/28 00:38:51;;;;;;;6.43;5.13;;;8.50;99.90;;;;;;5009495;28;20226;-53
2022/09/28 00:41:19;;;;;;;5.97;5.27;;;8.50;99.90;;;;;;4994024;28;20222;-53
2022/09/28 00:43:48;;;;;;;6.20;5.33;;;8.60;99.90;;;;;;4989941;28;20238;-53
2022/09/28 00:46:21;;;;;;;6.20;5.60;;;8.60;99.90;;;;;;4997867;28;20234;-53
2022/09/28 00:48:55;;;;;;;8.53;6.07;;;8.60;99.90;;;;;;5004316;28;20221;-52
2022/09/28 00:51:25;;;;;;;7.37;5.43;;;8.60;99.90;;;;;;4992456;28;20221;-53
2022/09/28 00:53:54;;;;;;;5.77;5.20;;;8.60;99.90;;;;;;4988760;28;20320;-54
2022/09/28 00:56:27;;;;;;;7.17;5.63;;;8.60;99.90;;;;;;4997111;28;20228;-53
2022/09/28 00:58:58;;;;;;;6.73;6.07;;;8.60;99.90;;;;;;4994380;28;20237;-53
2022/09/28 01:01:27;;;;;;;6.10;5.50;;;8.60;99.90;;;;;;4993044;28;20230;-53
2022/09/28 01:03:57;;;;;;;7.77;6.20;;;8.60;99.90;;;;;;4990204;28;20237;-54
2022/09/28 01:06:29;;;;;;;8.20;6.23;;;8.70;99.90;;;;;;4998617;28;20229;-53
2022/09/28 01:09:01;;;;;;;5.80;5.17;;;8.70;99.90;;;;;;5010057;28;20225;-54
2022/09/28 01:11:31;;;;;;;6.53;5.50;;;8.70;99.90;;;;;;4988594;28;20230;-51
2022/09/28 01:14:01;;;;;;;6.37;5.83;;;8.70;99.90;;;;;;4988949;28;20238;-54
2022/09/28 01:16:40;;;;;;;7.43;6.00;;;8.70;99.90;;;;;;4998152;28;20225;-52
2022/09/28 01:20:20;;;;;;;7.97;6.10;;;8.70;99.90;;;;;;4996597;28;20225;-53
2022/09/28 01:23:17;;;;;;;7.23;6.20;;;8.70;99.90;;;;;;4985344;28;20243;-51
2022/09/28 01:25:53;;;;;;;6.53;6.00;;;8.60;99.90;;;;;;4997815;28;20222;-54
2022/09/28 01:28:25;;;;;;;8.03;6.37;;;8.60;99.90;;;;;;4993578;28;20226;-55
2022/09/28 01:31:02;;;;;;;7.97;6.37;;;8.50;99.90;;;;;;4991498;28;20238;-53
2022/09/28 01:33:39;;;;;;;7.07;6.30;;;8.50;99.90;;;;;;4993027;28;20225;-52
2022/09/28 01:36:12;;;;;;;7.63;6.13;;;8.50;99.90;;;;;;5003461;28;20236;-54
2022/09/28 01:38:46;;;;;;;7.10;6.40;;;8.40;99.90;;;;;;4998059;28;20230;-52
2022/09/28 01:41:16;;;;;;;8.20;6.47;;;8.40;99.90;;;;;;4997933;28;20217;-54
2022/09/28 01:43:52;;;;;;;7.50;6.80;;;8.40;99.90;;;;;;4994260;28;20693;-54
2022/09/28 01:46:23;;;;;;;6.50;5.70;;;8.40;99.90;;;;;;4998491;28;20240;-53
2022/09/28 01:48:56;;;;;;;8.17;6.73;;;8.30;99.90;;;;;;5003678;28;20316;-54
2022/09/28 01:51:31;;;;;;;7.57;6.43;;;8.30;99.90;;;;;;5011227;28;20249;-53
2022/09/28 01:54:06;;;;;;;6.90;6.30;;;8.30;99.90;;;;;;4999336;28;20688;-55
2022/09/28 01:56:40;;;;;;;7.00;6.33;;;8.30;99.90;;;;;;4997999;28;20734;-53
2022/09/28 01:59:14;;;;;;;7.13;6.43;;;8.30;99.90;;;;;;4995477;28;20277;-53
2022/09/28 02:01:47;;;;;;;6.50;5.90;;;8.20;99.90;;;;;;4994477;28;20250;-51
2022/09/28 02:04:20;;;;;;;6.93;6.03;;;8.20;99.90;;;;;;4995770;28;20292;-53
2022/09/28 02:06:53;;;;;;;7.37;6.60;;;8.10;99.90;;;;;;4997647;28;20230;-52
2022/09/28 02:09:24;;;;;;;7.53;6.73;;;8.10;99.90;;;;;;5011673;28;20772;-53
2022/09/28 02:12:01;;;;;;;7.40;6.70;;;8.10;99.90;;;;;;4992868;28;20247;-54
2022/09/28 02:14:36;;;;;;;7.20;6.50;;;8.20;99.90;;;;;;5012069;28;20702;-51
2022/09/28 02:17:04;;;;;;;7.63;6.83;;;8.10;99.90;;;;;;5002881;28;20261;-53
2022/09/28 02:19:33;;;;;;;10.07;6.53;;;8.10;99.90;;;;;;5008863;28;20253;-54
2022/09/28 02:22:08;;;;;;;8.53;6.87;;;8.10;99.90;;;;;;4999516;28;20663;-54
2022/09/28 02:24:40;;;;;;;7.60;6.73;;;8.10;99.90;;;;;;4997327;28;20225;-51
2022/09/28 02:27:14;;;;;;;8.17;6.77;;;8.10;99.90;;;;;;4995239;28;20596;-54
2022/09/28 02:29:44;;;;;;;7.10;6.30;;;8.10;99.90;;;;;;4994469;28;20293;-54
2022/09/28 02:32:12;;;;;;;7.50;6.77;;;8.00;99.90;;;;;;4995363;28;21082;-53
2022/09/28 02:34:40;;;;;;;10.53;6.57;;;8.00;99.90;;;;;;4990727;28;20272;-54
2022/09/28 02:37:09;;;;;;;6.90;6.20;;;8.00;99.90;;;;;;4994937;28;20238;-52
2022/09/28 02:39:37;;;;;;;7.90;7.10;;;8.00;99.90;;;;;;4994657;28;20234;-52
2022/09/28 02:42:16;;;;;;;7.60;6.90;;;8.00;99.90;;;;;;4999644;28;20260;-51
2022/09/28 02:45:02;;;;;;;7.90;7.10;;;7.90;99.90;;;;;;4991455;28;20237;-53
2022/09/28 02:47:44;;;;;;;8.30;6.93;;;8.00;99.90;;;;;;5003789;28;20220;-52
2022/09/28 02:50:21;;;;;;;8.17;7.37;;;7.90;99.90;;;;;;4978770;28;20230;-53
2022/09/28 02:53:07;;;;;;;9.23;7.97;;;8.00;99.90;;;;;;4996635;28;20255;-54
2022/09/28 02:55:49;;;;;;;10.83;7.97;;;8.00;99.90;;;;;;4996868;28;20690;-51
2022/09/28 02:58:26;;;;;;;9.30;8.30;;;8.00;99.90;;;;;;4994114;28;20309;-53
2022/09/28 03:01:06;;;;;;;9.67;8.10;;;8.00;99.90;;;;;;4993629;28;20238;-53
2022/09/28 03:03:44;;;;;;;8.97;7.97;;;8.00;99.90;;;;;;4988693;28;20620;-53
2022/09/28 03:06:15;;;;;;;9.00;8.03;;;8.00;99.90;;;;;;4987409;28;20230;-52
2022/09/28 03:08:52;;;;;;;8.97;7.90;;;8.00;99.90;;;;;;4994176;28;20230;-52
2022/09/28 03:11:28;;;;;;;9.33;8.37;;;7.90;99.90;;;;;;5001254;28;20226;-53
2022/09/28 03:13:57;;;;;;;9.13;8.23;;;8.00;99.90;;;;;;4990495;28;20586;-53
2022/09/28 03:16:35;;;;;;;9.67;8.00;;;8.00;99.90;;;;;;5000978;28;20307;-52
2022/09/28 03:19:03;;;;;;;8.40;7.60;;;7.90;99.90;;;;;;5005283;28;20225;-53
2022/09/28 03:21:31;;;;;;;8.00;7.23;;;7.90;99.90;;;;;;5007548;28;20218;-53
2022/09/28 03:23:59;;;;;;;8.10;7.00;;;7.90;99.90;;;;;;4993767;28;20238;-52
2022/09/28 03:26:27;;;;;;;7.40;6.60;;;7.90;99.90;;;;;;4999939;28;20620;-51
2022/09/28 03:28:56;;;;;;;7.40;6.70;;;7.90;99.90;;;;;;5009865;28;20646;-53
2022/09/28 03:31:25;;;;;;;7.83;7.03;;;7.90;99.90;;;;;;4992914;28;20693;-53
2022/09/28 03:33:54;;;;;;;7.97;7.13;;;7.90;99.90;;;;;;4993457;28;20233;-54
2022/09/28 03:36:23;;;;;;;7.57;6.80;;;7.90;99.90;;;;;;5005724;28;20287;-53
2022/09/28 03:38:53;;;;;;;7.43;6.73;;;7.90;99.90;;;;;;5013112;28;20229;-53
2022/09/28 03:41:24;;;;;;;6.97;6.27;;;7.90;99.90;;;;;;5018083;28;20325;-50
2022/09/28 03:43:52;;;;;;;7.03;6.43;;;7.80;99.90;;;;;;4993170;28;20221;-51
2022/09/28 03:46:22;;;;;;;7.40;6.80;;;7.80;99.90;;;;;;5004029;28;20221;-53
2022/09/28 03:48:57;;;;;;;7.50;6.70;;;7.80;99.90;;;;;;5003034;28;20226;-53
2022/09/28 03:51:25;;;;;;;7.67;6.97;;;7.80;99.90;;;;;;4997804;28;20229;-53
2022/09/28 03:53:54;;;;;;;7.60;6.83;;;7.80;99.90;;;;;;4997793;28;20228;-53
2022/09/28 03:56:22;;;;;;;7.87;7.00;;;7.70;99.90;;;;;;5015671;28;20226;-51
2022/09/28 03:58:50;;;;;;;7.50;6.90;;;7.70;99.90;;;;;;5001768;28;20238;-53
2022/09/28 04:01:21;;;;;;;7.17;6.53;;;7.70;99.90;;;;;;5003226;28;20228;-51
2022/09/28 04:03:55;;;;;;;7.37;6.67;;;7.70;99.90;;;;;;5011057;28;20223;-55
2022/09/28 04:06:24;;;;;;;7.40;6.47;;;7.70;99.90;;;;;;4998903;28;20699;-54
2022/09/28 04:08:52;;;;;;;8.03;7.23;;;7.80;99.90;;;;;;5019909;28;20305;-54
2022/09/28 04:11:20;;;;;;;8.63;7.37;;;7.80;99.90;;;;;;5002105;28;20232;-53
2022/09/28 04:13:49;;;;;;;8.80;8.00;;;7.80;99.90;;;;;;4994853;28;20716;-52
2022/09/28 04:16:18;;;;;;;9.13;8.23;;;7.70;99.90;;;;;;5002229;28;20313;-52
2022/09/28 04:18:59;;;;;;;8.33;7.53;;;7.70;99.90;;;;;;5022381;28;20304;-53
2022/09/28 04:21:44;;;;;;;9.00;8.20;;;7.70;99.90;;;;;;5002186;28;20229;-53
2022/09/28 04:24:14;;;;;;;9.53;7.70;;;7.60;99.90;;;;;;4994603;28;20240;-55
2022/09/28 04:26:42;;;;;;;8.23;7.43;;;7.70;99.90;;;;;;4998562;28;20441;-53
2022/09/28 04:29:14;;;;;;;8.57;7.77;;;7.70;99.90;;;;;;5002131;28;20292;-51
2022/09/28 04:32:04;;;;;;;8.33;7.53;;;7.70;99.90;;;;;;4997004;28;20250;-50
2022/09/28 04:34:37;;;;;;;8.40;7.60;;;7.70;99.90;;;;;;4992056;28;20563;-54
2022/09/28 04:37:11;;;;;;;8.87;7.97;;;7.60;99.90;;;;;;4973545;28;20230;-53
2022/09/28 04:39:40;;;;;;;9.07;8.27;;;7.60;99.90;;;;;;4990017;28;20265;-51
2022/09/28 04:42:14;;;;;;;8.40;7.60;;;7.60;99.90;;;;;;4992262;28;20273;-52
2022/09/28 04:44:42;;;;;;;8.20;7.40;;;7.60;99.90;;;;;;4997332;28;20378;-52
2022/09/28 04:47:11;;;;;;;8.87;7.97;;;7.60;99.90;;;;;;5000640;28;20226;-51
2022/09/28 04:49:59;;;;;;;8.33;7.53;;;7.60;99.90;;;;;;5012529;28;20710;-52
2022/09/28 04:52:36;;;;;;;8.50;7.70;;;7.60;99.90;;;;;;4998489;28;20748;-53
2022/09/28 04:55:04;;;;;;;8.20;7.40;;;7.60;99.90;;;;;;4995228;28;20241;-52
2022/09/28 04:57:34;;;;;;;8.27;7.47;;;7.70;99.90;;;;;;4992460;28;20745;-53
2022/09/28 05:00:03;;;;;;;9.33;8.10;;;7.60;99.90;;;;;;5011659;28;20588;-53
2022/09/28 05:02:34;;;;;;;9.33;8.43;;;7.70;99.90;;;;;;5015030;28;20226;-53
2022/09/28 05:05:22;;;;;;;8.57;7.77;;;7.60;99.90;;;;;;4994619;28;20240;-52
2022/09/28 05:08:29;;;;;;;8.30;7.40;;;7.60;99.90;;;;;;4986675;28;20241;-51
2022/09/28 05:10:59;;;;;;;9.90;8.50;;;7.50;99.90;;;;;;5004936;28;20217;-53
2022/09/28 05:13:27;;;;;;;7.83;7.13;;;7.60;99.90;;;;;;4990040;28;20796;-52
2022/09/28 05:15:57;;;;;;;10.03;8.60;;;7.60;99.90;;;;;;4996950;28;20222;-54
2022/09/28 05:18:32;;;;;;;9.07;8.17;;;7.60;99.90;;;;;;5003443;28;20225;-53
2022/09/28 05:21:04;;;;;;;9.10;8.20;;;7.60;99.90;;;;;;5013286;28;20222;-53
2022/09/28 05:23:33;;;;;;;9.43;7.93;;;7.60;99.90;;;;;;4993809;28;20234;-54
2022/09/28 05:26:02;;;;;;;9.63;8.57;;;7.60;99.90;;;;;;4994139;28;20636;-51
2022/09/28 05:28:32;;;;;;;8.87;7.57;;;7.60;99.90;;;;;;4995887;28;20236;-51
2022/09/28 05:31:18;;;;;;;10.50;9.40;;;7.60;99.90;;;;;;4997129;28;20241;-51
2022/09/28 05:33:57;;;;;;;10.23;8.57;;;7.60;99.90;;;;;;4999536;28;20241;-52
2022/09/28 05:36:27;;;;;;;10.97;9.00;;;7.60;99.90;;;;;;4998810;28;20316;-52
2022/09/28 05:38:56;;;;;;;10.10;8.57;;;7.70;99.90;;;;;;4997126;28;20248;-51
2022/09/28 05:41:24;;;;;;;9.93;8.77;;;7.70;99.90;;;;;;5003994;28;20226;-51
2022/09/28 05:43:53;;;;;;;11.87;9.53;;;7.70;99.90;;;;;;4997961;28;20229;-54
2022/09/28 05:46:22;;;;;;;10.57;9.47;;;7.80;99.90;;;;;;5001160;28;20240;-53
2022/09/28 05:48:53;;;;;;;10.70;9.60;;;7.70;99.90;;;;;;4996881;28;20265;-52
2022/09/28 05:51:23;;;;;;;10.30;9.30;;;7.70;99.90;;;;;;4997634;28;20716;-53
2022/09/28 05:53:54;;;;;;;10.10;8.83;;;7.70;99.90;;;;;;4996520;28;20617;-53
2022/09/28 05:56:22;;;;;;;10.23;9.13;;;7.70;99.90;;;;;;4995896;28;20234;-53
2022/09/28 05:58:52;;;;;;;13.03;10.57;;;7.60;99.90;;;;;;4995615;28;20309;-53
2022/09/28 06:01:22;;;;;;;22.63;15.47;;;7.70;99.90;;;;;;5005416;28;20261;-50
2022/09/28 06:03:51;;;;;;;21.93;14.60;;;7.70;99.90;;;;;;5000832;28;20320;-53
2022/09/28 06:06:19;;;;;;;19.87;14.13;;;7.70;99.90;;;;;;5002201;28;20242;-52
2022/09/28 06:08:48;;;;;;;23.27;16.70;;;7.60;99.90;;;;;;4996505;28;20256;-52
2022/09/28 06:11:33;;;;;;;19.63;15.97;;;7.60;99.90;;;;;;5004625;28;20661;-54
2022/09/28 06:14:08;;;;;;;14.07;12.63;;;7.60;99.90;;;;;;5008575;28;20238;-54
2022/09/28 06:16:37;;;;;;;13.53;11.57;;;7.60;99.90;;;;;;4990899;28;20234;-53
2022/09/28 06:19:12;;;;;;;12.37;10.60;;;7.60;99.90;;;;;;4990070;28;20233;-53
2022/09/28 06:22:02;;;;;;;10.60;9.40;;;7.60;99.90;;;;;;4989818;28;20752;-54
2022/09/28 06:24:33;;;;;;;11.03;9.93;;;7.70;99.90;;;;;;5008900;28;20353;-53
2022/09/28 06:27:03;;;;;;;10.40;9.33;;;7.60;99.90;;;;;;4987726;28;20578;-53
2022/09/28 06:29:31;;;;;;;9.80;8.80;;;7.70;99.90;;;;;;4988506;28;20579;-50
2022/09/28 06:32:00;;;;;;;10.50;9.40;;;7.70;99.90;;;;;;4988183;28;20871;-50
2022/09/28 06:34:29;;;;;;;11.03;9.93;;;7.80;99.90;;;;;;4987771;28;20218;-54
2022/09/28 06:36:57;;;;;;;10.63;9.53;;;7.80;99.90;;;;;;4988633;28;20272;-52
2022/09/28 06:39:25;;;;;;;10.53;9.47;;;7.80;99.90;;;;;;4988558;28;20242;-54
2022/09/28 06:41:53;;;;;;;10.87;9.87;;;7.80;99.90;;;;;;4988271;28;20237;-53
2022/09/28 06:44:23;;;;;;;10.67;9.57;;;7.90;99.90;;;;;;4989125;28;20716;-54
2022/09/28 06:47:23;;;;;;;10.30;9.30;;;7.90;99.90;;;;;;4989927;28;20234;-52
2022/09/28 06:50:15;;;;;;;10.73;9.23;;;7.90;99.90;;;;;;4985119;28;20733;-53
2022/09/28 06:53:13;;;;;;;11.13;9.93;;;8.00;99.90;;;;;;4987681;28;20234;-53
2022/09/28 06:55:56;;;;;;;10.47;9.40;;;8.00;99.90;;;;;;4989172;28;20590;-53
2022/09/28 06:58:25;;;;;;;11.30;10.10;;;8.10;99.90;;;;;;4989327;28;20265;-53
2022/09/28 07:00:58;;;;;;;10.40;9.40;;;8.10;99.90;;;;;;4988327;28;20245;-53
2022/09/28 07:03:29;;;;;;;10.83;9.83;;;8.20;99.90;;;;;;4987429;28;20257;-53
2022/09/28 07:06:22;;;;;;;10.93;9.83;;;8.20;99.90;;;;;;4979987;28;20594;-53
2022/09/28 07:09:11;;;;;;;10.63;9.63;;;8.30;99.90;;;;;;4986851;28;20269;-51
2022/09/28 07:12:22;;;;;;;11.43;10.33;;;8.40;99.90;;;;;;4978161;28;20226;-54
2022/09/28 07:14:56;;;;;;;10.83;9.73;;;8.50;99.90;;;;;;4990875;28;20316;-55
2022/09/28 07:17:28;;;;;;;12.40;10.87;;;8.50;99.90;;;;;;4988403;28;20224;-56
2022/09/28 07:19:59;;;;;;;11.83;10.63;;;8.60;99.90;;;;;;4988738;28;20272;-55
2022/09/28 07:22:38;;;;;;;14.70;13.20;;;8.70;99.90;;;;;;4988945;28;20237;-55
2022/09/28 07:25:14;;;;;;;15.20;11.57;;;8.70;99.90;;;;;;4987742;28;20237;-55
2022/09/28 07:28:04;;;;;;;11.03;9.93;;;8.80;99.90;;;;;;4980683;28;20264;-54
2022/09/28 07:30:52;;;;;;;12.73;10.97;;;8.90;99.90;;;;;;4983655;28;20692;-55
2022/09/28 07:33:42;;;;;;;12.97;11.67;;;9.00;99.90;;;;;;4987221;28;20233;-55
2022/09/28 07:36:34;;;;;;;11.90;10.70;;;9.00;99.90;;;;;;4988442;28;20234;-55
2022/09/28 07:39:03;;;;;;;12.27;10.97;;;9.10;99.90;;;;;;4987708;28;20230;-56
2022/09/28 07:41:31;;;;;;;12.07;10.77;;;9.00;99.90;;;;;;5005000;28;20601;-55
2022/09/28 07:44:05;;;;;;;12.33;11.13;;;9.10;99.90;;;;;;5003291;28;20280;-55
2022/09/28 07:46:35;;;;;;;11.53;10.43;;;9.20;99.90;;;;;;4986717;28;20225;-55
2022/09/28 07:49:18;;;;;;;12.50;11.20;;;9.20;99.90;;;;;;4987795;28;20222;-56
2022/09/28 07:52:04;;;;;;;13.63;11.93;;;9.30;99.90;;;;;;4986270;28;20280;-55
2022/09/28 07:54:39;;;;;;;12.93;11.47;;;9.40;99.90;;;;;;4986748;28;21527;-55
2022/09/28 07:57:35;;;;;;;13.37;12.00;;;9.50;99.90;;;;;;4986321;28;20221;-55
2022/09/28 08:00:21;;;;;;;13.67;12.17;;;9.50;99.90;;;;;;4986880;28;20235;-52
2022/09/28 08:02:49;;;;;;;13.30;11.90;;;9.50;99.90;;;;;;4986142;28;20648;-55
2022/09/28 08:05:23;;;;;;;13.37;12.03;;;9.50;99.90;;;;;;4988092;28;20225;-55
2022/09/28 08:07:52;;;;;;;13.13;11.70;;;9.50;99.90;;;;;;4985157;28;20313;-54
2022/09/28 08:10:20;;;;;;;16.10;12.53;;;9.50;99.90;;;;;;4986579;28;20232;-55
2022/09/28 08:13:06;;;;;;;12.57;10.90;;;9.50;99.90;;;;;;4986627;28;20236;-55
2022/09/28 08:15:51;;;;;;;12.93;11.37;;;9.60;99.90;;;;;;4988023;28;20317;-51
2022/09/28 08:18:31;;;;;;;14.63;13.13;;;9.70;99.90;;;;;;4988685;28;20272;-56
2022/09/28 08:23:48;;;;;;;13.37;11.67;;;9.80;99.90;;;;;;4985611;28;20241;-54
2022/09/28 08:26:16;;;;;;;14.13;11.80;;;9.80;99.90;;;;;;4988565;28;20221;-53
2022/09/28 08:28:46;;;;;;;12.70;11.40;;;9.80;99.90;;;;;;4988232;28;20234;-56
2022/09/28 08:31:33;;;;;;;13.70;11.50;;;9.90;99.90;;;;;;4984541;28;20237;-54
2022/09/28 08:34:18;;;;;;;11.70;10.47;;;9.90;99.90;;;;;;4986166;28;20229;-55
2022/09/28 08:37:07;;;;;;;14.27;12.67;;;10.10;99.90;;;;;;4988142;28;20218;-54
2022/09/28 08:39:54;;;;;;;12.73;11.43;;;10.10;99.90;;;;;;4988458;28;20732;-55
2022/09/28 08:42:43;;;;;;;13.03;11.67;;;10.20;99.90;;;;;;4986952;28;20280;-55
2022/09/28 08:45:34;;;;;;;13.33;11.93;;;10.30;99.90;;;;;;4987888;28;20602;-56
2022/09/28 08:51:38;;;;;;;12.87;11.07;;;10.30;99.90;;;;;;4959470;28;20225;-51
2022/09/28 08:54:33;;;;;;;13.83;12.43;;;10.40;99.90;;;;;;4985959;28;20221;-55
2022/09/28 08:57:07;;;;;;;14.37;11.83;;;10.50;99.90;;;;;;4988208;28;20223;-56
2022/09/28 08:59:45;;;;;;;13.53;12.17;;;10.50;99.90;;;;;;4986403;28;20222;-55
2022/09/28 09:02:22;;;;;;;14.70;11.63;;;10.60;99.90;;;;;;4990804;28;20240;-55
2022/09/28 09:04:52;;;;;;;12.73;11.43;;;10.70;99.90;;;;;;4990968;28;20790;-55
2022/09/28 09:07:49;;;;;;;13.63;12.17;;;10.70;99.90;;;;;;4991569;28;20240;-55
2022/09/28 09:13:30;;;;;;;13.67;12.27;;;10.70;99.90;;;;;;5119667;27;20620;-51
2022/09/28 09:16:11;;;;;;;13.93;12.50;;;10.80;99.90;;;;;;5116248;28;20708;-52
2022/09/28 09:19:10;;;;;;;13.53;12.13;;;10.70;99.90;;;;;;5122619;27;20233;-53
2022/09/28 09:22:16;;;;;;;13.73;12.27;;;10.70;99.90;;;;;;5119846;28;20218;-52
2022/09/28 09:24:50;;;;;;;14.60;12.07;;;10.70;99.90;;;;;;5122137;28;20228;-53
2022/09/28 09:27:41;;;;;;;14.07;12.20;;;10.60;99.90;;;;;;5107641;28;20286;-52
2022/09/28 09:30:13;;;;;;;13.03;11.53;;;10.60;99.90;;;;;;5103399;28;20319;-52
2022/09/28 09:33:03;;;;;;;14.53;11.57;;;10.60;99.90;;;;;;5081137;28;20660;-52
2022/09/28 09:35:59;;;;;;;14.10;12.13;;;10.60;99.90;;;;;;5082615;28;20237;-51
2022/09/28 09:39:03;;;;;;;13.50;12.03;;;10.50;99.90;;;;;;5078317;28;20232;-52
2022/09/28 09:42:07;;;;;;;13.87;12.13;;;10.50;99.90;;;;;;5083012;28;20235;-54
2022/09/28 09:45:09;;;;;;;13.33;11.13;;;10.50;99.90;;;;;;5084067;28;20274;-55
2022/09/28 09:48:04;;;;;;;13.53;12.00;;;10.50;99.90;;;;;;5055283;28;20262;-53
2022/09/28 09:50:38;;;;;;;16.53;11.50;;;10.50;99.90;;;;;;5082968;28;20223;-55
2022/09/28 09:53:16;;;;;;;12.80;11.13;;;10.70;99.90;;;;;;5081318;28;20344;-54
2022/09/28 09:55:46;;;;;;;14.35;12.95;;;10.90;99.90;;;;;;5079826;28;20932;-54
2022/09/28 09:58:26;;;;;;;12.23;10.67;;;11.00;99.90;;;;;;5081406;28;20220;-56
2022/09/28 10:01:07;;;;;;;12.33;10.77;;;11.20;99.90;;;;;;5083147;28;20317;-56
2022/09/28 10:03:58;;;;;;;12.17;10.33;;;11.30;99.90;;;;;;5081725;28;20215;-55
2022/09/28 10:06:33;;;;;;;12.50;10.60;;;11.40;99.90;;;;;;5081194;28;20632;-56
2022/09/28 10:09:04;;;;;;;12.83;9.87;;;11.40;99.90;;;;;;5082651;28;20657;-55
2022/09/28 10:11:39;;;;;;;12.50;10.43;;;11.40;99.90;;;;;;5081728;28;20745;-55
2022/09/28 10:14:13;;;;;;;12.57;11.27;;;11.40;99.90;;;;;;5082114;28;20235;-56
2022/09/28 10:16:47;;;;;;;13.03;10.97;;;11.30;99.90;;;;;;5083304;28;20283;-55
2022/09/28 10:19:31;;;;;;;11.67;10.07;;;11.30;99.90;;;;;;5081468;28;20231;-55
2022/09/28 10:22:37;;;;;;;11.83;9.73;;;11.40;99.90;;;;;;5078055;28;20227;-56
2022/09/28 10:25:13;;;;;;;11.10;9.90;;;11.60;99.90;;;;;;5067486;28;20216;-54
2022/09/28 10:27:45;;;;;;;11.07;9.87;;;11.70;99.90;;;;;;5068153;28;20269;-55
2022/09/28 10:30:17;;;;;;;10.30;9.20;;;11.80;99.90;;;;;;5068344;28;20707;-56
2022/09/28 10:32:48;;;;;;;10.33;9.23;;;11.90;99.90;;;;;;5067011;28;20233;-53
2022/09/28 10:35:27;;;;;;;10.67;8.90;;;12.00;99.90;;;;;;5067985;28;20310;-54
2022/09/28 10:38:05;;;;;;;10.10;8.60;;;12.00;99.90;;;;;;5068504;28;20591;-53
2022/09/28 10:40:55;;;;;;;10.13;9.10;;;12.10;99.90;;;;;;5069330;28;20228;-53
2022/09/28 10:43:33;;;;;;;11.83;9.07;;;12.20;99.90;;;;;;5066545;28;20253;-53
2022/09/28 10:46:09;;;;;;;11.93;9.17;;;12.50;99.90;;;;;;5066793;28;20593;-53
2022/09/28 10:48:49;;;;;;;8.83;7.93;;;13.20;99.90;;;;;;5083373;28;20305;-53
2022/09/28 10:51:19;;;;;;;9.33;7.93;;;13.70;99.90;;;;;;5068596;28;20226;-54
2022/09/28 10:54:01;;;;;;;9.33;7.80;;;14.20;99.90;;;;;;5066838;28;20288;-54
2022/09/28 10:56:44;;;;;;;11.67;8.77;;;14.50;99.90;;;;;;5067384;28;20233;-53
2022/09/28 10:59:36;;;;;;;8.83;7.93;;;14.60;99.90;;;;;;5067823;28;20229;-53
2022/09/28 11:02:24;;;;;;;8.00;7.20;;;14.50;99.90;;;;;;5067247;28;20670;-53
2022/09/28 11:04:58;;;;;;;9.13;7.43;;;14.70;99.90;;;;;;5067674;28;20229;-53
2022/09/28 11:07:34;;;;;;;9.30;7.80;;;14.60;99.90;;;;;;5067554;28;20231;-53
2022/09/28 11:10:02;;;;;;;8.37;7.43;;;14.20;99.90;;;;;;5069264;28;20219;-54
2022/09/28 11:12:38;;;;;;;8.07;7.27;;;14.10;99.90;;;;;;5082804;28;20589;-54
2022/09/28 11:15:07;;;;;;;8.63;7.00;;;14.40;99.90;;;;;;5067492;28;20234;-54
2022/09/28 11:17:39;;;;;;;8.50;7.40;;;14.60;99.90;;;;;;5067429;28;20222;-53
2022/09/28 11:20:30;;;;;;;8.30;6.70;;;14.90;99.90;;;;;;5067229;28;20585;-53
2022/09/28 11:23:19;;;;;;;7.87;7.07;;;14.90;99.90;;;;;;5065989;28;20572;-54
2022/09/28 11:26:01;;;;;;;7.43;6.63;;;15.00;99.90;;;;;;5063083;28;20772;-54
2022/09/28 11:28:33;;;;;;;8.53;7.40;;;15.30;99.90;;;;;;5067315;28;20712;-53
2022/09/28 11:31:07;;;;;;;8.00;6.47;;;15.60;99.90;;;;;;5082541;28;20820;-54
2022/09/28 11:33:47;;;;;;;7.60;6.80;;;15.90;99.90;;;;;;5066087;28;20255;-54
2022/09/28 11:36:57;;;;;;;7.93;5.80;;;16.20;99.90;;;;;;5065642;28;20223;-50
2022/09/28 11:39:38;;;;;;;6.80;6.10;;;16.40;99.90;;;;;;5067153;28;20234;-54
2022/09/28 11:42:17;;;;;;;6.47;5.87;;;16.40;99.90;;;;;;5065318;28;20657;-54
2022/09/28 11:44:48;;;;;;;7.20;5.60;;;16.20;99.90;;;;;;5066709;28;20702;-54
2022/09/28 11:47:37;;;;;;;6.83;5.57;;;16.20;99.90;;;;;;5066268;28;20215;-54
2022/09/28 11:50:14;;;;;;;5.67;5.10;;;16.00;99.90;;;;;;5067020;28;20699;-54
2022/09/28 11:52:54;;;;;;;6.57;5.30;;;15.80;99.90;;;;;;5064557;28;20316;-54
2022/09/28 11:55:29;;;;;;;5.40;4.90;;;15.80;99.90;;;;;;5063014;28;20247;-53
2022/09/28 11:58:04;;;;;;;6.10;5.27;;;15.70;99.90;;;;;;5065931;28;20276;-54
2022/09/28 12:00:40;;;;;;;5.90;4.07;;;15.70;99.90;;;;;;5067308;28;20242;-54
2022/09/28 12:03:14;;;;;;;4.90;4.30;;;15.70;99.90;;;;;;5065239;28;20578;-54
2022/09/28 12:05:48;;;;;;;5.20;4.30;;;15.70;99.90;;;;;;5065968;28;20229;-54
2022/09/28 12:08:21;;;;;;;5.20;4.60;;;15.70;99.90;;;;;;5066031;28;20242;-55
2022/09/28 12:11:11;;;;;;;4.60;4.03;;;15.70;99.90;;;;;;5067188;28;20235;-54
2022/09/28 12:14:00;;;;;;;6.23;4.87;;;15.80;99.90;;;;;;5065036;28;20233;-52
2022/09/28 12:16:34;;;;;;;4.93;3.97;;;15.70;99.90;;;;;;5067752;28;20219;-54
2022/09/28 12:19:29;;;;;;;5.57;3.80;;;15.60;99.90;;;;;;5065579;28;20226;-53
2022/09/28 12:22:02;;;;;;;4.93;4.37;;;15.50;99.90;;;;;;5066115;28;20239;-53
2022/09/28 12:24:34;;;;;;;4.97;3.80;;;15.50;99.90;;;;;;5067830;28;20733;-54
2022/09/28 12:27:11;;;;;;;4.80;3.90;;;15.50;99.90;;;;;;5067336;28;20593;-53
2022/09/28 12:29:43;;;;;;;4.97;3.93;;;15.40;99.90;;;;;;5063754;28;20611;-54
2022/09/28 12:32:18;;;;;;;4.27;3.87;;;15.30;99.90;;;;;;5064890;28;20230;-53
2022/09/28 12:34:46;;;;;;;3.90;3.50;;;15.30;99.90;;;;;;5067509;28;20234;-54
2022/09/28 12:37:29;;;;;;;5.33;3.50;;;15.50;99.90;;;;;;5067795;28;20647;-53
2022/09/28 12:40:19;;;;;;;4.70;3.20;;;15.70;99.90;;;;;;5067704;28;20301;-54
2022/09/28 12:43:23;;;;;;;5.60;3.30;;;15.90;99.90;;;;;;5066300;28;20725;-54
2022/09/28 12:46:14;;;;;;;4.13;3.37;;;15.70;99.90;;;;;;5066120;28;20226;-53
2022/09/28 12:49:04;;;;;;;4.20;2.90;;;15.60;99.90;;;;;;5065165;28;20714;-54
2022/09/28 12:51:54;;;;;;;3.77;2.43;;;15.40;99.90;;;;;;5065405;28;20219;-53
2022/09/28 12:54:45;;;;;;;3.40;2.50;;;15.50;99.90;;;;;;5067081;28;20235;-53
2022/09/28 12:57:39;;;;;;;3.00;2.33;;;15.40;99.90;;;;;;5065221;28;20717;-54
2022/09/28 13:00:14;;;;;;;2.73;2.40;;;15.40;99.90;;;;;;5067684;28;20234;-53
2022/09/28 13:03:10;;;;;;;3.87;2.23;;;15.50;99.90;;;;;;5064644;28;20242;-53
2022/09/28 13:06:11;;;;;;;4.77;2.33;;;15.50;99.90;;;;;;5065776;28;20227;-54
2022/09/28 13:08:45;;;;;;;3.07;2.23;;;15.50;99.90;;;;;;5065468;28;20677;-54
2022/09/28 13:11:22;;;;;;;4.47;2.00;;;15.70;99.90;;;;;;5066278;28;20250;-54
2022/09/28 13:14:01;;;;;;;3.17;2.37;;;15.60;99.90;;;;;;5065149;28;20218;-53
2022/09/28 13:16:40;;;;;;;3.00;2.20;;;15.50;99.90;;;;;;5067020;28;20690;-54
2022/09/28 13:19:16;;;;;;;3.17;1.80;;;15.50;99.90;;;;;;5064830;28;20222;-53
2022/09/28 13:21:50;;;;;;;2.93;2.00;;;15.50;99.90;;;;;;5065841;28;20219;-52
2022/09/28 13:24:25;;;;;;;3.67;2.67;;;15.50;99.90;;;;;;5066182;28;20230;-54
2022/09/28 13:27:06;;;;;;;4.23;2.40;;;15.40;99.90;;;;;;5067041;28;20249;-54
2022/09/28 13:29:35;;;;;;;3.57;2.30;;;15.50;99.90;;;;;;5066364;28;20690;-53
2022/09/28 13:32:08;;;;;;;3.80;2.23;;;15.60;99.90;;;;;;5065244;28;20233;-54
2022/09/28 13:34:38;;;;;;;4.03;2.00;;;15.70;99.90;;;;;;5065994;28;20656;-53
2022/09/28 13:37:20;;;;;;;3.20;2.03;;;15.60;99.90;;;;;;5066889;28;20218;-53
2022/09/28 13:39:51;;;;;;;2.43;1.63;;;15.40;99.90;;;;;;5066950;28;20361;-54
2022/09/28 13:42:49;;;;;;;1.77;1.20;;;15.50;99.90;;;;;;5066112;28;20289;-53
2022/09/28 13:45:29;;;;;;;2.97;1.50;;;15.50;99.90;;;;;;5066608;28;20218;-54
2022/09/28 13:48:15;;;;;;;1.50;1.40;;;15.40;99.90;;;;;;5066420;28;20238;-53